sensor_id;sensor_type;location;lat;lon;timestamp;P1;durP1;ratioP1;P2;durP2;ratioP2
12908;SDS011;6522;49.622;6.126;2022-07-19T00:01:14;16.40;;;15.50;;
12908;SDS011;6522;49.622;6.126;2022-07-19T00:04:00;18.40;;;17.50;;
12908;SDS011;6522;49.622;6.126;2022-07-19T00:06:47;16.90;;;15.90;;
12908;SDS011;6522;49.622;6.126;2022-07-19T00:09:34;16.20;;;15.10;;
12908;SDS011;6522;49.622;6.126;2022-07-19T00:12:20;18.10;;;17.20;;
12908;SDS011;6522;49.622;6.126;2022-07-19T00:15:08;16.52;;;15.60;;
12908;SDS011;6522;49.622;6.126;2022-07-19T00:17:54;19.03;;;17.93;;
12908;SDS011;6522;49.622;6.126;2022-07-19T00:20:41;15.80;;;14.80;;
12908;SDS011;6522;49.622;6.126;2022-07-19T00:23:28;19.63;;;17.97;;
12908;SDS011;6522;49.622;6.126;2022-07-19T00:26:14;16.80;;;15.70;;
12908;SDS011;6522;49.622;6.126;2022-07-19T00:29:02;16.23;;;15.32;;
12908;SDS011;6522;49.622;6.126;2022-07-19T00:31:48;18.90;;;17.90;;
12908;SDS011;6522;49.622;6.126;2022-07-19T00:34:35;15.63;;;14.73;;
12908;SDS011;6522;49.622;6.126;2022-07-19T00:37:22;18.57;;;17.57;;
12908;SDS011;6522;49.622;6.126;2022-07-19T00:40:10;15.68;;;14.77;;
12908;SDS011;6522;49.622;6.126;2022-07-19T00:42:57;18.60;;;17.67;;
12908;SDS011;6522;49.622;6.126;2022-07-19T00:45:43;15.97;;;15.07;;
12908;SDS011;6522;49.622;6.126;2022-07-19T00:48:30;15.90;;;15.10;;
12908;SDS011;6522;49.622;6.126;2022-07-19T00:51:17;18.70;;;17.70;;
12908;SDS011;6522;49.622;6.126;2022-07-19T00:54:04;16.40;;;15.40;;
12908;SDS011;6522;49.622;6.126;2022-07-19T00:56:50;16.07;;;15.17;;
12908;SDS011;6522;49.622;6.126;2022-07-19T00:59:37;18.90;;;17.90;;
12908;SDS011;6522;49.622;6.126;2022-07-19T01:02:24;16.50;;;15.30;;
12908;SDS011;6522;49.622;6.126;2022-07-19T01:05:11;15.85;;;14.85;;
12908;SDS011;6522;49.622;6.126;2022-07-19T01:07:57;19.33;;;17.90;;
12908;SDS011;6522;49.622;6.126;2022-07-19T01:10:44;15.77;;;14.77;;
12908;SDS011;6522;49.622;6.126;2022-07-19T01:13:31;15.88;;;14.70;;
12908;SDS011;6522;49.622;6.126;2022-07-19T01:16:17;17.70;;;16.70;;
12908;SDS011;6522;49.622;6.126;2022-07-19T01:19:05;15.88;;;14.87;;
12908;SDS011;6522;49.622;6.126;2022-07-19T01:21:51;15.18;;;14.30;;
12908;SDS011;6522;49.622;6.126;2022-07-19T01:24:38;17.53;;;16.67;;
12908;SDS011;6522;49.622;6.126;2022-07-19T01:27:25;15.75;;;14.63;;
12908;SDS011;6522;49.622;6.126;2022-07-19T01:30:12;15.30;;;14.50;;
12908;SDS011;6522;49.622;6.126;2022-07-19T01:32:59;17.90;;;17.00;;
12908;SDS011;6522;49.622;6.126;2022-07-19T01:35:45;15.75;;;14.85;;
12908;SDS011;6522;49.622;6.126;2022-07-19T01:38:32;15.70;;;14.70;;
12908;SDS011;6522;49.622;6.126;2022-07-19T01:41:19;18.13;;;17.17;;
12908;SDS011;6522;49.622;6.126;2022-07-19T01:44:06;15.10;;;14.20;;
12908;SDS011;6522;49.622;6.126;2022-07-19T01:46:52;15.15;;;14.25;;
12908;SDS011;6522;49.622;6.126;2022-07-19T01:49:39;15.27;;;14.27;;
12908;SDS011;6522;49.622;6.126;2022-07-19T01:52:26;17.50;;;16.60;;
12908;SDS011;6522;49.622;6.126;2022-07-19T01:55:12;15.87;;;14.90;;
12908;SDS011;6522;49.622;6.126;2022-07-19T01:57:59;16.20;;;15.10;;
12908;SDS011;6522;49.622;6.126;2022-07-19T02:00:46;18.83;;;17.93;;
12908;SDS011;6522;49.622;6.126;2022-07-19T02:03:32;15.10;;;14.25;;
12908;SDS011;6522;49.622;6.126;2022-07-19T02:06:19;16.30;;;15.30;;
12908;SDS011;6522;49.622;6.126;2022-07-19T02:09:06;18.43;;;17.43;;
12908;SDS011;6522;49.622;6.126;2022-07-19T02:11:52;15.87;;;14.97;;
12908;SDS011;6522;49.622;6.126;2022-07-19T02:14:39;15.10;;;14.10;;
12908;SDS011;6522;49.622;6.126;2022-07-19T02:17:26;18.37;;;17.17;;
12908;SDS011;6522;49.622;6.126;2022-07-19T02:20:13;15.40;;;14.50;;
12908;SDS011;6522;49.622;6.126;2022-07-19T02:23:00;14.85;;;13.95;;
12908;SDS011;6522;49.622;6.126;2022-07-19T02:25:46;17.93;;;16.90;;
12908;SDS011;6522;49.622;6.126;2022-07-19T02:28:33;15.03;;;14.13;;
12908;SDS011;6522;49.622;6.126;2022-07-19T02:31:20;15.25;;;14.45;;
12908;SDS011;6522;49.622;6.126;2022-07-19T02:34:07;17.80;;;16.70;;
12908;SDS011;6522;49.622;6.126;2022-07-19T02:36:54;15.50;;;14.50;;
12908;SDS011;6522;49.622;6.126;2022-07-19T02:39:41;14.87;;;13.90;;
12908;SDS011;6522;49.622;6.126;2022-07-19T02:42:27;17.93;;;16.83;;
12908;SDS011;6522;49.622;6.126;2022-07-19T02:45:14;14.90;;;14.00;;
12908;SDS011;6522;49.622;6.126;2022-07-19T02:48:01;18.65;;;17.65;;
12908;SDS011;6522;49.622;6.126;2022-07-19T02:50:48;16.97;;;15.87;;
12908;SDS011;6522;49.622;6.126;2022-07-19T02:53:34;13.55;;;12.60;;
12908;SDS011;6522;49.622;6.126;2022-07-19T02:56:21;13.80;;;12.90;;
12908;SDS011;6522;49.622;6.126;2022-07-19T02:59:08;15.70;;;14.80;;
12908;SDS011;6522;49.622;6.126;2022-07-19T03:01:55;13.70;;;12.90;;
12908;SDS011;6522;49.622;6.126;2022-07-19T03:04:42;13.05;;;12.25;;
12908;SDS011;6522;49.622;6.126;2022-07-19T03:07:28;15.70;;;14.60;;
12908;SDS011;6522;49.622;6.126;2022-07-19T03:10:15;13.30;;;12.40;;
12908;SDS011;6522;49.622;6.126;2022-07-19T03:13:02;13.13;;;12.32;;
12908;SDS011;6522;49.622;6.126;2022-07-19T03:15:49;12.80;;;11.90;;
12908;SDS011;6522;49.622;6.126;2022-07-19T03:18:35;15.67;;;14.77;;
12908;SDS011;6522;49.622;6.126;2022-07-19T03:21:22;13.55;;;12.30;;
12908;SDS011;6522;49.622;6.126;2022-07-19T03:24:09;12.90;;;11.90;;
12908;SDS011;6522;49.622;6.126;2022-07-19T03:26:55;15.50;;;14.50;;
12908;SDS011;6522;49.622;6.126;2022-07-19T03:29:42;13.40;;;12.40;;
12908;SDS011;6522;49.622;6.126;2022-07-19T03:32:29;15.32;;;14.43;;
12908;SDS011;6522;49.622;6.126;2022-07-19T03:35:16;14.57;;;13.68;;
12908;SDS011;6522;49.622;6.126;2022-07-19T03:38:03;14.00;;;13.20;;
12908;SDS011;6522;49.622;6.126;2022-07-19T03:40:50;14.40;;;13.50;;
12908;SDS011;6522;49.622;6.126;2022-07-19T03:43:37;13.70;;;12.90;;
12908;SDS011;6522;49.622;6.126;2022-07-19T03:46:23;13.20;;;12.30;;
12908;SDS011;6522;49.622;6.126;2022-07-19T03:49:10;12.73;;;11.98;;
12908;SDS011;6522;49.622;6.126;2022-07-19T03:51:57;13.40;;;12.37;;
12908;SDS011;6522;49.622;6.126;2022-07-19T03:54:44;13.18;;;12.27;;
12908;SDS011;6522;49.622;6.126;2022-07-19T03:57:31;12.68;;;11.88;;
12908;SDS011;6522;49.622;6.126;2022-07-19T04:00:18;13.80;;;12.90;;
12908;SDS011;6522;49.622;6.126;2022-07-19T04:03:04;13.25;;;12.45;;
12908;SDS011;6522;49.622;6.126;2022-07-19T04:05:51;13.30;;;12.40;;
12908;SDS011;6522;49.622;6.126;2022-07-19T04:08:38;12.85;;;12.05;;
12908;SDS011;6522;49.622;6.126;2022-07-19T04:11:24;12.85;;;11.95;;
12908;SDS011;6522;49.622;6.126;2022-07-19T04:14:11;12.35;;;11.52;;
12908;SDS011;6522;49.622;6.126;2022-07-19T04:16:57;12.77;;;11.95;;
12908;SDS011;6522;49.622;6.126;2022-07-19T04:19:44;12.27;;;11.38;;
12908;SDS011;6522;49.622;6.126;2022-07-19T04:22:31;12.40;;;11.43;;
12908;SDS011;6522;49.622;6.126;2022-07-19T04:25:18;12.65;;;11.90;;
12908;SDS011;6522;49.622;6.126;2022-07-19T04:28:05;10.82;;;10.02;;
12908;SDS011;6522;49.622;6.126;2022-07-19T04:30:52;11.30;;;10.50;;
12908;SDS011;6522;49.622;6.126;2022-07-19T04:33:38;13.38;;;12.55;;
12908;SDS011;6522;49.622;6.126;2022-07-19T04:36:25;13.43;;;12.63;;
12908;SDS011;6522;49.622;6.126;2022-07-19T04:39:12;13.20;;;12.40;;
12908;SDS011;6522;49.622;6.126;2022-07-19T04:41:58;12.35;;;11.55;;
12908;SDS011;6522;49.622;6.126;2022-07-19T04:44:45;12.85;;;11.95;;
12908;SDS011;6522;49.622;6.126;2022-07-19T04:47:32;13.30;;;12.10;;
12908;SDS011;6522;49.622;6.126;2022-07-19T04:50:19;12.95;;;12.05;;
12908;SDS011;6522;49.622;6.126;2022-07-19T04:53:06;12.68;;;11.88;;
12908;SDS011;6522;49.622;6.126;2022-07-19T04:55:53;12.52;;;11.80;;
12908;SDS011;6522;49.622;6.126;2022-07-19T04:58:39;13.00;;;12.18;;
12908;SDS011;6522;49.622;6.126;2022-07-19T05:01:26;12.77;;;11.63;;
12908;SDS011;6522;49.622;6.126;2022-07-19T05:04:13;14.02;;;12.55;;
12908;SDS011;6522;49.622;6.126;2022-07-19T05:06:59;13.65;;;12.85;;
12908;SDS011;6522;49.622;6.126;2022-07-19T05:09:46;14.50;;;13.52;;
12908;SDS011;6522;49.622;6.126;2022-07-19T05:12:33;13.02;;;12.32;;
12908;SDS011;6522;49.622;6.126;2022-07-19T05:15:19;13.32;;;12.43;;
12908;SDS011;6522;49.622;6.126;2022-07-19T05:18:06;12.85;;;12.05;;
12908;SDS011;6522;49.622;6.126;2022-07-19T05:20:53;14.20;;;13.18;;
12908;SDS011;6522;49.622;6.126;2022-07-19T05:23:40;13.60;;;12.90;;
12908;SDS011;6522;49.622;6.126;2022-07-19T05:26:26;13.95;;;13.15;;
12908;SDS011;6522;49.622;6.126;2022-07-19T05:29:13;14.27;;;13.38;;
12908;SDS011;6522;49.622;6.126;2022-07-19T05:32:00;14.25;;;13.18;;
12908;SDS011;6522;49.622;6.126;2022-07-19T05:34:47;14.93;;;13.93;;
12908;SDS011;6522;49.622;6.126;2022-07-19T05:37:34;13.27;;;12.37;;
12908;SDS011;6522;49.622;6.126;2022-07-19T05:40:20;14.40;;;13.60;;
12908;SDS011;6522;49.622;6.126;2022-07-19T05:43:07;14.63;;;13.73;;
12908;SDS011;6522;49.622;6.126;2022-07-19T05:45:54;16.20;;;15.23;;
12908;SDS011;6522;49.622;6.126;2022-07-19T05:48:41;14.50;;;13.55;;
12908;SDS011;6522;49.622;6.126;2022-07-19T05:51:27;15.45;;;14.15;;
12908;SDS011;6522;49.622;6.126;2022-07-19T05:54:14;16.70;;;15.63;;
12908;SDS011;6522;49.622;6.126;2022-07-19T05:57:01;14.30;;;13.40;;
12908;SDS011;6522;49.622;6.126;2022-07-19T05:59:47;14.98;;;13.98;;
12908;SDS011;6522;49.622;6.126;2022-07-19T06:02:34;17.10;;;16.00;;
12908;SDS011;6522;49.622;6.126;2022-07-19T06:05:21;15.17;;;14.07;;
12908;SDS011;6522;49.622;6.126;2022-07-19T06:08:07;15.35;;;14.25;;
12908;SDS011;6522;49.622;6.126;2022-07-19T06:10:54;15.60;;;14.40;;
12908;SDS011;6522;49.622;6.126;2022-07-19T06:13:41;17.30;;;16.30;;
12908;SDS011;6522;49.622;6.126;2022-07-19T06:16:27;15.00;;;14.00;;
12908;SDS011;6522;49.622;6.126;2022-07-19T06:19:14;15.80;;;14.60;;
12908;SDS011;6522;49.622;6.126;2022-07-19T06:22:01;17.00;;;15.80;;
12908;SDS011;6522;49.622;6.126;2022-07-19T06:24:48;16.00;;;14.80;;
12908;SDS011;6522;49.622;6.126;2022-07-19T06:27:34;15.50;;;14.40;;
12908;SDS011;6522;49.622;6.126;2022-07-19T06:30:21;17.80;;;16.67;;
12908;SDS011;6522;49.622;6.126;2022-07-19T06:33:09;15.40;;;14.27;;
12908;SDS011;6522;49.622;6.126;2022-07-19T06:35:56;15.20;;;14.30;;
12908;SDS011;6522;49.622;6.126;2022-07-19T06:38:43;16.15;;;14.90;;
12908;SDS011;6522;49.622;6.126;2022-07-19T06:41:32;19.03;;;16.80;;
12908;SDS011;6522;49.622;6.126;2022-07-19T06:44:18;15.68;;;14.57;;
12908;SDS011;6522;49.622;6.126;2022-07-19T06:47:05;16.52;;;15.38;;
12908;SDS011;6522;49.622;6.126;2022-07-19T06:49:52;17.10;;;16.00;;
12908;SDS011;6522;49.622;6.126;2022-07-19T06:52:39;16.15;;;15.00;;
12908;SDS011;6522;49.622;6.126;2022-07-19T06:55:26;18.03;;;17.03;;
12908;SDS011;6522;49.622;6.126;2022-07-19T06:58:13;16.50;;;15.50;;
12908;SDS011;6522;49.622;6.126;2022-07-19T07:01:00;17.47;;;16.27;;
12908;SDS011;6522;49.622;6.126;2022-07-19T07:03:46;16.90;;;15.70;;
12908;SDS011;6522;49.622;6.126;2022-07-19T07:06:33;18.40;;;17.33;;
12908;SDS011;6522;49.622;6.126;2022-07-19T07:09:20;18.80;;;17.50;;
12908;SDS011;6522;49.622;6.126;2022-07-19T07:12:07;19.10;;;18.10;;
12908;SDS011;6522;49.622;6.126;2022-07-19T07:14:54;19.70;;;18.30;;
12908;SDS011;6522;49.622;6.126;2022-07-19T07:17:40;19.43;;;18.30;;
12908;SDS011;6522;49.622;6.126;2022-07-19T07:20:27;19.07;;;17.97;;
12908;SDS011;6522;49.622;6.126;2022-07-19T07:23:13;19.17;;;17.97;;
12908;SDS011;6522;49.622;6.126;2022-07-19T07:26:00;21.27;;;19.80;;
12908;SDS011;6522;49.622;6.126;2022-07-19T07:28:47;20.37;;;19.10;;
12908;SDS011;6522;49.622;6.126;2022-07-19T07:31:34;20.70;;;19.20;;
12908;SDS011;6522;49.622;6.126;2022-07-19T07:34:20;21.77;;;20.20;;
12908;SDS011;6522;49.622;6.126;2022-07-19T07:37:07;20.63;;;19.53;;
12908;SDS011;6522;49.622;6.126;2022-07-19T07:39:54;19.70;;;18.23;;
12908;SDS011;6522;49.622;6.126;2022-07-19T07:42:40;20.17;;;19.07;;
12908;SDS011;6522;49.622;6.126;2022-07-19T07:45:29;20.83;;;19.60;;
12908;SDS011;6522;49.622;6.126;2022-07-19T07:48:15;21.07;;;19.73;;
12908;SDS011;6522;49.622;6.126;2022-07-19T07:51:02;18.20;;;17.20;;
12908;SDS011;6522;49.622;6.126;2022-07-19T07:53:49;21.00;;;19.77;;
12908;SDS011;6522;49.622;6.126;2022-07-19T07:56:36;20.57;;;19.47;;
12908;SDS011;6522;49.622;6.126;2022-07-19T07:59:24;21.33;;;19.93;;
12908;SDS011;6522;49.622;6.126;2022-07-19T08:02:11;20.63;;;19.63;;
12908;SDS011;6522;49.622;6.126;2022-07-19T08:04:57;20.60;;;19.50;;
12908;SDS011;6522;49.622;6.126;2022-07-19T08:07:44;20.67;;;19.47;;
12908;SDS011;6522;49.622;6.126;2022-07-19T08:10:31;20.70;;;19.60;;
12908;SDS011;6522;49.622;6.126;2022-07-19T08:13:17;20.50;;;19.40;;
12908;SDS011;6522;49.622;6.126;2022-07-19T08:16:04;20.00;;;19.00;;
12908;SDS011;6522;49.622;6.126;2022-07-19T08:18:51;22.83;;;21.03;;
12908;SDS011;6522;49.622;6.126;2022-07-19T08:21:38;21.00;;;19.60;;
12908;SDS011;6522;49.622;6.126;2022-07-19T08:24:24;20.00;;;18.80;;
12908;SDS011;6522;49.622;6.126;2022-07-19T08:27:11;20.33;;;19.20;;
12908;SDS011;6522;49.622;6.126;2022-07-19T08:29:58;18.83;;;17.33;;
12908;SDS011;6522;49.622;6.126;2022-07-19T08:32:45;20.97;;;19.77;;
12908;SDS011;6522;49.622;6.126;2022-07-19T08:35:31;20.40;;;19.40;;
12908;SDS011;6522;49.622;6.126;2022-07-19T08:38:19;18.43;;;17.43;;
12908;SDS011;6522;49.622;6.126;2022-07-19T08:41:08;20.90;;;19.50;;
12908;SDS011;6522;49.622;6.126;2022-07-19T08:43:54;20.03;;;18.93;;
12908;SDS011;6522;49.622;6.126;2022-07-19T08:46:41;20.30;;;19.20;;
12908;SDS011;6522;49.622;6.126;2022-07-19T08:49:27;20.17;;;18.67;;
12908;SDS011;6522;49.622;6.126;2022-07-19T08:52:14;19.80;;;18.70;;
12908;SDS011;6522;49.622;6.126;2022-07-19T08:55:02;20.17;;;19.13;;
12908;SDS011;6522;49.622;6.126;2022-07-19T08:57:47;20.63;;;19.50;;
12908;SDS011;6522;49.622;6.126;2022-07-19T09:00:43;21.03;;;19.60;;
12908;SDS011;6522;49.622;6.126;2022-07-19T09:03:29;20.90;;;19.73;;
12908;SDS011;6522;49.622;6.126;2022-07-19T09:06:16;21.10;;;19.93;;
12908;SDS011;6522;49.622;6.126;2022-07-19T09:09:03;21.30;;;19.80;;
12908;SDS011;6522;49.622;6.126;2022-07-19T09:11:50;20.97;;;19.67;;
12908;SDS011;6522;49.622;6.126;2022-07-19T09:14:37;21.13;;;19.83;;
12908;SDS011;6522;49.622;6.126;2022-07-19T09:17:23;20.07;;;19.07;;
12908;SDS011;6522;49.622;6.126;2022-07-19T09:20:10;20.13;;;19.03;;
12908;SDS011;6522;49.622;6.126;2022-07-19T09:22:56;20.33;;;19.13;;
12908;SDS011;6522;49.622;6.126;2022-07-19T09:25:48;20.23;;;19.13;;
12908;SDS011;6522;49.622;6.126;2022-07-19T09:28:34;19.37;;;18.27;;
12908;SDS011;6522;49.622;6.126;2022-07-19T09:31:20;20.60;;;19.27;;
12908;SDS011;6522;49.622;6.126;2022-07-19T09:34:07;17.90;;;16.90;;
12908;SDS011;6522;49.622;6.126;2022-07-19T09:40:00;18.00;;;16.90;;
12908;SDS011;6522;49.622;6.126;2022-07-19T09:42:45;19.20;;;18.10;;
12908;SDS011;6522;49.622;6.126;2022-07-19T09:45:32;19.70;;;18.50;;
12908;SDS011;6522;49.622;6.126;2022-07-19T09:48:20;18.02;;;16.90;;
12908;SDS011;6522;49.622;6.126;2022-07-19T09:51:06;19.60;;;18.60;;
12908;SDS011;6522;49.622;6.126;2022-07-19T09:53:54;19.10;;;18.10;;
12908;SDS011;6522;49.622;6.126;2022-07-19T09:56:41;19.57;;;18.53;;
12908;SDS011;6522;49.622;6.126;2022-07-19T09:59:28;19.97;;;18.90;;
12908;SDS011;6522;49.622;6.126;2022-07-19T10:02:15;20.93;;;19.63;;
12908;SDS011;6522;49.622;6.126;2022-07-19T10:05:05;19.13;;;17.93;;
12908;SDS011;6522;49.622;6.126;2022-07-19T10:07:52;19.27;;;17.63;;
12908;SDS011;6522;49.622;6.126;2022-07-19T10:10:38;19.43;;;17.90;;
12908;SDS011;6522;49.622;6.126;2022-07-19T10:13:25;18.57;;;17.67;;
12908;SDS011;6522;49.622;6.126;2022-07-19T10:16:13;19.30;;;17.80;;
12908;SDS011;6522;49.622;6.126;2022-07-19T10:21:46;21.57;;;20.47;;
12908;SDS011;6522;49.622;6.126;2022-07-19T10:32:59;17.93;;;17.03;;
12908;SDS011;6522;49.622;6.126;2022-07-19T10:35:46;19.13;;;17.80;;
12908;SDS011;6522;49.622;6.126;2022-07-19T10:38:33;17.87;;;16.97;;
12908;SDS011;6522;49.622;6.126;2022-07-19T10:41:26;17.67;;;16.77;;
12908;SDS011;6522;49.622;6.126;2022-07-19T10:44:13;18.60;;;17.60;;
12908;SDS011;6522;49.622;6.126;2022-07-19T10:47:00;18.07;;;17.17;;
12908;SDS011;6522;49.622;6.126;2022-07-19T10:49:47;18.43;;;17.03;;
12908;SDS011;6522;49.622;6.126;2022-07-19T10:52:34;18.63;;;17.53;;
12908;SDS011;6522;49.622;6.126;2022-07-19T10:58:10;18.70;;;17.70;;
12908;SDS011;6522;49.622;6.126;2022-07-19T11:00:54;17.67;;;16.83;;
12908;SDS011;6522;49.622;6.126;2022-07-19T11:03:40;18.70;;;17.60;;
12908;SDS011;6522;49.622;6.126;2022-07-19T11:06:28;17.50;;;16.60;;
12908;SDS011;6522;49.622;6.126;2022-07-19T11:09:14;18.53;;;17.20;;
12908;SDS011;6522;49.622;6.126;2022-07-19T11:12:18;17.53;;;16.47;;
12908;SDS011;6522;49.622;6.126;2022-07-19T11:14:47;17.30;;;16.40;;
12908;SDS011;6522;49.622;6.126;2022-07-19T11:17:34;17.37;;;16.47;;
12908;SDS011;6522;49.622;6.126;2022-07-19T11:20:24;17.00;;;16.10;;
12908;SDS011;6522;49.622;6.126;2022-07-19T11:23:16;18.10;;;16.80;;
12908;SDS011;6522;49.622;6.126;2022-07-19T11:26:08;17.30;;;16.50;;
12908;SDS011;6522;49.622;6.126;2022-07-19T11:28:53;18.10;;;17.00;;
12908;SDS011;6522;49.622;6.126;2022-07-19T11:31:47;17.50;;;16.60;;
12908;SDS011;6522;49.622;6.126;2022-07-19T11:34:36;17.53;;;16.53;;
12908;SDS011;6522;49.622;6.126;2022-07-19T11:37:23;15.87;;;14.77;;
12908;SDS011;6522;49.622;6.126;2022-07-19T11:40:10;17.73;;;16.80;;
12908;SDS011;6522;49.622;6.126;2022-07-19T11:42:56;18.50;;;17.50;;
12908;SDS011;6522;49.622;6.126;2022-07-19T11:45:47;18.33;;;17.13;;
12908;SDS011;6522;49.622;6.126;2022-07-19T11:48:30;17.70;;;16.53;;
12908;SDS011;6522;49.622;6.126;2022-07-19T11:51:16;16.70;;;15.43;;
12908;SDS011;6522;49.622;6.126;2022-07-19T11:54:03;17.27;;;16.17;;
12908;SDS011;6522;49.622;6.126;2022-07-19T11:56:50;17.47;;;16.37;;
12908;SDS011;6522;49.622;6.126;2022-07-19T11:59:37;17.20;;;16.00;;
12908;SDS011;6522;49.622;6.126;2022-07-19T12:02:24;17.60;;;16.60;;
12908;SDS011;6522;49.622;6.126;2022-07-19T12:05:13;17.40;;;16.40;;
12908;SDS011;6522;49.622;6.126;2022-07-19T12:08:02;17.60;;;16.70;;
12908;SDS011;6522;49.622;6.126;2022-07-19T12:10:48;17.50;;;16.47;;
12908;SDS011;6522;49.622;6.126;2022-07-19T12:13:37;15.75;;;14.85;;
12908;SDS011;6522;49.622;6.126;2022-07-19T12:16:24;15.43;;;14.52;;
12908;SDS011;6522;49.622;6.126;2022-07-19T12:19:10;17.90;;;16.70;;
12908;SDS011;6522;49.622;6.126;2022-07-19T12:21:57;16.83;;;15.73;;
12908;SDS011;6522;49.622;6.126;2022-07-19T12:24:44;16.93;;;16.03;;
12908;SDS011;6522;49.622;6.126;2022-07-19T12:27:31;16.93;;;16.03;;
12908;SDS011;6522;49.622;6.126;2022-07-19T12:30:18;17.93;;;16.83;;
12908;SDS011;6522;49.622;6.126;2022-07-19T12:35:54;17.40;;;16.43;;
12908;SDS011;6522;49.622;6.126;2022-07-19T12:38:41;16.90;;;16.00;;
12908;SDS011;6522;49.622;6.126;2022-07-19T12:41:27;17.50;;;16.53;;
12908;SDS011;6522;49.622;6.126;2022-07-19T12:44:14;17.30;;;16.40;;
12908;SDS011;6522;49.622;6.126;2022-07-19T12:47:02;17.30;;;16.40;;
12908;SDS011;6522;49.622;6.126;2022-07-19T12:49:48;17.37;;;16.17;;
12908;SDS011;6522;49.622;6.126;2022-07-19T12:52:35;17.95;;;16.40;;
12908;SDS011;6522;49.622;6.126;2022-07-19T12:55:22;17.57;;;16.57;;
12908;SDS011;6522;49.622;6.126;2022-07-19T12:58:08;17.15;;;16.10;;
12908;SDS011;6522;49.622;6.126;2022-07-19T13:00:55;16.60;;;15.80;;
12908;SDS011;6522;49.622;6.126;2022-07-19T13:03:42;17.20;;;16.20;;
12908;SDS011;6522;49.622;6.126;2022-07-19T13:06:28;17.50;;;16.40;;
12908;SDS011;6522;49.622;6.126;2022-07-19T13:09:15;16.80;;;15.70;;
12908;SDS011;6522;49.622;6.126;2022-07-19T13:12:03;17.33;;;15.97;;
12908;SDS011;6522;49.622;6.126;2022-07-19T13:14:49;17.27;;;16.27;;
12908;SDS011;6522;49.622;6.126;2022-07-19T13:17:36;16.33;;;15.33;;
12908;SDS011;6522;49.622;6.126;2022-07-19T13:20:22;17.07;;;16.07;;
12908;SDS011;6522;49.622;6.126;2022-07-19T13:23:09;17.90;;;16.80;;
12908;SDS011;6522;49.622;6.126;2022-07-19T13:25:56;17.63;;;16.53;;
12908;SDS011;6522;49.622;6.126;2022-07-19T13:28:42;17.30;;;16.00;;
12908;SDS011;6522;49.622;6.126;2022-07-19T13:31:29;17.70;;;16.50;;
12908;SDS011;6522;49.622;6.126;2022-07-19T13:34:16;17.97;;;16.70;;
12908;SDS011;6522;49.622;6.126;2022-07-19T13:37:02;18.10;;;16.90;;
12908;SDS011;6522;49.622;6.126;2022-07-19T13:39:49;17.83;;;16.80;;
12908;SDS011;6522;49.622;6.126;2022-07-19T13:42:36;17.60;;;16.70;;
12908;SDS011;6522;49.622;6.126;2022-07-19T13:45:22;17.30;;;16.40;;
12908;SDS011;6522;49.622;6.126;2022-07-19T13:48:09;18.17;;;16.97;;
12908;SDS011;6522;49.622;6.126;2022-07-19T13:50:56;17.73;;;16.27;;
12908;SDS011;6522;49.622;6.126;2022-07-19T13:53:42;16.97;;;16.00;;
12908;SDS011;6522;49.622;6.126;2022-07-19T13:56:30;17.67;;;16.37;;
12908;SDS011;6522;49.622;6.126;2022-07-19T13:59:16;18.07;;;17.07;;
12908;SDS011;6522;49.622;6.126;2022-07-19T14:02:03;16.08;;;15.05;;
12908;SDS011;6522;49.622;6.126;2022-07-19T14:04:50;17.60;;;16.40;;
12908;SDS011;6522;49.622;6.126;2022-07-19T14:07:37;17.70;;;16.80;;
12908;SDS011;6522;49.622;6.126;2022-07-19T14:10:24;17.17;;;16.30;;
12908;SDS011;6522;49.622;6.126;2022-07-19T14:13:10;18.07;;;17.17;;
12908;SDS011;6522;49.622;6.126;2022-07-19T14:15:57;19.47;;;18.27;;
12908;SDS011;6522;49.622;6.126;2022-07-19T14:18:44;18.00;;;17.10;;
12908;SDS011;6522;49.622;6.126;2022-07-19T14:21:31;18.50;;;17.50;;
12908;SDS011;6522;49.622;6.126;2022-07-19T14:24:17;18.23;;;17.33;;
12908;SDS011;6522;49.622;6.126;2022-07-19T14:27:04;18.50;;;17.40;;
12908;SDS011;6522;49.622;6.126;2022-07-19T14:29:51;18.07;;;17.17;;
12908;SDS011;6522;49.622;6.126;2022-07-19T14:32:37;17.73;;;16.83;;
12908;SDS011;6522;49.622;6.126;2022-07-19T14:35:24;17.67;;;16.77;;
12908;SDS011;6522;49.622;6.126;2022-07-19T14:38:11;17.57;;;16.67;;
12908;SDS011;6522;49.622;6.126;2022-07-19T14:40:58;17.70;;;16.70;;
12908;SDS011;6522;49.622;6.126;2022-07-19T14:43:45;17.87;;;16.87;;
12908;SDS011;6522;49.622;6.126;2022-07-19T14:46:32;18.10;;;17.20;;
12908;SDS011;6522;49.622;6.126;2022-07-19T14:49:18;17.90;;;16.90;;
12908;SDS011;6522;49.622;6.126;2022-07-19T14:52:05;18.97;;;17.80;;
12908;SDS011;6522;49.622;6.126;2022-07-19T14:54:52;18.97;;;17.67;;
12908;SDS011;6522;49.622;6.126;2022-07-19T14:57:39;18.20;;;17.10;;
12908;SDS011;6522;49.622;6.126;2022-07-19T15:00:25;15.88;;;14.98;;
12908;SDS011;6522;49.622;6.126;2022-07-19T15:03:12;18.00;;;17.10;;
12908;SDS011;6522;49.622;6.126;2022-07-19T15:05:59;17.57;;;16.67;;
12908;SDS011;6522;49.622;6.126;2022-07-19T15:08:46;18.87;;;17.50;;
12908;SDS011;6522;49.622;6.126;2022-07-19T15:11:33;18.33;;;17.43;;
12908;SDS011;6522;49.622;6.126;2022-07-19T15:14:19;18.70;;;17.50;;
12908;SDS011;6522;49.622;6.126;2022-07-19T15:17:07;17.57;;;16.60;;
12908;SDS011;6522;49.622;6.126;2022-07-19T15:19:54;18.07;;;17.07;;
12908;SDS011;6522;49.622;6.126;2022-07-19T15:22:40;18.00;;;17.00;;
12908;SDS011;6522;49.622;6.126;2022-07-19T15:25:27;18.20;;;17.30;;
12908;SDS011;6522;49.622;6.126;2022-07-19T15:28:14;20.20;;;18.90;;
12908;SDS011;6522;49.622;6.126;2022-07-19T15:31:00;19.00;;;18.00;;
12908;SDS011;6522;49.622;6.126;2022-07-19T15:33:47;18.63;;;17.63;;
12908;SDS011;6522;49.622;6.126;2022-07-19T15:36:34;19.17;;;18.07;;
12908;SDS011;6522;49.622;6.126;2022-07-19T15:39:21;18.27;;;17.33;;
12908;SDS011;6522;49.622;6.126;2022-07-19T15:42:08;19.93;;;18.73;;
12908;SDS011;6522;49.622;6.126;2022-07-19T15:44:55;20.60;;;19.43;;
12908;SDS011;6522;49.622;6.126;2022-07-19T15:47:42;20.67;;;19.37;;
12908;SDS011;6522;49.622;6.126;2022-07-19T15:50:29;19.90;;;18.90;;
12908;SDS011;6522;49.622;6.126;2022-07-19T15:53:15;20.17;;;19.17;;
12908;SDS011;6522;49.622;6.126;2022-07-19T15:56:02;20.20;;;19.10;;
12908;SDS011;6522;49.622;6.126;2022-07-19T15:58:49;20.50;;;19.40;;
12908;SDS011;6522;49.622;6.126;2022-07-19T16:01:36;20.53;;;19.43;;
12908;SDS011;6522;49.622;6.126;2022-07-19T16:04:23;20.77;;;19.53;;
12908;SDS011;6522;49.622;6.126;2022-07-19T16:07:09;19.90;;;18.70;;
12908;SDS011;6522;49.622;6.126;2022-07-19T16:09:56;19.63;;;18.43;;
12908;SDS011;6522;49.622;6.126;2022-07-19T16:12:43;19.57;;;18.50;;
12908;SDS011;6522;49.622;6.126;2022-07-19T16:15:30;19.07;;;18.07;;
12908;SDS011;6522;49.622;6.126;2022-07-19T16:18:16;19.07;;;18.00;;
12908;SDS011;6522;49.622;6.126;2022-07-19T16:21:03;19.50;;;18.50;;
12908;SDS011;6522;49.622;6.126;2022-07-19T16:23:50;19.03;;;18.13;;
12908;SDS011;6522;49.622;6.126;2022-07-19T16:26:37;19.70;;;18.70;;
12908;SDS011;6522;49.622;6.126;2022-07-19T16:29:24;20.37;;;19.37;;
12908;SDS011;6522;49.622;6.126;2022-07-19T16:32:11;18.70;;;17.50;;
12908;SDS011;6522;49.622;6.126;2022-07-19T16:34:57;21.53;;;19.97;;
12908;SDS011;6522;49.622;6.126;2022-07-19T16:37:44;20.23;;;19.23;;
12908;SDS011;6522;49.622;6.126;2022-07-19T16:40:31;20.97;;;19.90;;
12908;SDS011;6522;49.622;6.126;2022-07-19T16:43:18;21.00;;;19.70;;
12908;SDS011;6522;49.622;6.126;2022-07-19T16:46:04;20.50;;;19.40;;
12908;SDS011;6522;49.622;6.126;2022-07-19T16:48:51;21.87;;;20.60;;